createdAt,value
2022-08-05T00:02:07.984Z,100.00
2022-08-05T00:04:46.956Z,100.00
2022-08-05T00:07:59.216Z,100.00
2022-08-05T00:10:15.788Z,100.00
2022-08-05T00:12:56.600Z,100.00
2022-08-05T00:15:54.990Z,100.00
2022-08-05T00:18:22.676Z,100.00
2022-08-05T00:21:00.357Z,100.00
2022-08-05T00:23:44.346Z,100.00
2022-08-05T00:26:17.177Z,100.00
2022-08-05T00:28:46.024Z,100.00
2022-08-05T00:31:14.766Z,100.00
2022-08-05T00:34:53.355Z,100.00
2022-08-05T00:37:12.357Z,100.00
2022-08-05T00:39:36.973Z,100.00
2022-08-05T00:42:10.351Z,100.00
2022-08-05T00:44:58.806Z,100.00
2022-08-05T00:47:53.524Z,100.00
2022-08-05T00:50:37.832Z,100.00
2022-08-05T00:53:09.635Z,100.00
2022-08-05T00:56:03.188Z,100.00
2022-08-05T00:58:32.751Z,100.00
2022-08-05T01:01:01.318Z,100.00
2022-08-05T01:03:33.396Z,100.00
2022-08-05T01:06:03.936Z,100.00
2022-08-05T01:08:42.801Z,100.00
2022-08-05T01:11:22.671Z,100.00
2022-08-05T01:14:15.432Z,100.00
2022-08-05T01:16:55.199Z,100.00
2022-08-05T01:20:01.790Z,100.00
2022-08-05T01:22:41.716Z,100.00
2022-08-05T01:26:02.120Z,100.00
2022-08-05T01:28:39.261Z,100.00
2022-08-05T01:31:16.395Z,100.00
2022-08-05T01:33:55.514Z,100.00
2022-08-05T01:36:32.398Z,100.00
2022-08-05T01:39:02.347Z,100.00
2022-08-05T01:41:37.583Z,100.00
2022-08-05T01:44:09.849Z,100.00
2022-08-05T01:46:44.641Z,100.00
2022-08-05T01:49:23.724Z,100.00
2022-08-05T01:52:00.001Z,100.00
2022-08-05T01:54:46.138Z,100.00
2022-08-05T01:58:10.553Z,100.00
2022-08-05T02:00:21.400Z,100.00
2022-08-05T02:03:31.260Z,100.00
2022-08-05T02:06:37.252Z,100.00
2022-08-05T02:08:57.994Z,100.00
2022-08-05T02:11:34.247Z,100.00
2022-08-05T02:14:13.703Z,100.00
2022-08-05T02:16:54.777Z,100.00
2022-08-05T02:19:35.681Z,100.00
2022-08-05T02:22:25.625Z,100.00
2022-08-05T02:25:06.229Z,100.00
2022-08-05T02:27:59.520Z,100.00
2022-08-05T02:30:51.793Z,100.00
2022-08-05T02:33:35.891Z,100.00
2022-08-05T02:36:17.281Z,100.00
2022-08-05T02:38:53.304Z,100.00
2022-08-05T02:41:28.811Z,100.00
2022-08-05T02:44:12.130Z,100.00
2022-08-05T02:46:58.754Z,100.00
2022-08-05T02:49:37.108Z,100.00
2022-08-05T02:52:29.831Z,100.00
2022-08-05T02:55:01.975Z,100.00
2022-08-05T02:58:09.653Z,100.00
2022-08-05T03:00:28.709Z,100.00
2022-08-05T03:03:01.542Z,100.00
2022-08-05T03:06:55.958Z,100.00
2022-08-05T03:08:27.154Z,100.00
2022-08-05T03:11:53.367Z,100.00
2022-08-05T03:14:03.189Z,100.00
2022-08-05T03:16:32.494Z,100.00
2022-08-05T03:19:12.698Z,100.00
2022-08-05T03:21:58.808Z,100.00
2022-08-05T03:24:30.842Z,100.00
2022-08-05T03:27:03.209Z,100.00
2022-08-05T03:29:46.002Z,100.00
2022-08-05T03:32:30.699Z,100.00
2022-08-05T03:35:00.646Z,100.00
2022-08-05T03:37:44.747Z,100.00
2022-08-05T03:40:31.275Z,100.00
2022-08-05T03:43:01.372Z,100.00
2022-08-05T03:45:57.080Z,100.00
2022-08-05T03:48:29.803Z,100.00
2022-08-05T03:52:38.007Z,100.00
2022-08-05T03:55:50.264Z,100.00
2022-08-05T03:56:58.972Z,100.00
2022-08-05T03:59:46.801Z,100.00
2022-08-05T04:02:38.415Z,100.00
2022-08-05T04:05:09.890Z,100.00
2022-08-05T04:07:57.069Z,100.00
2022-08-05T04:10:33.321Z,100.00
2022-08-05T04:13:08.105Z,100.00
2022-08-05T04:15:37.289Z,100.00
2022-08-05T04:18:10.226Z,100.00
2022-08-05T04:20:59.252Z,100.00
2022-08-05T04:24:05.323Z,100.00
2022-08-05T04:26:23.025Z,100.00
2022-08-05T04:29:07.092Z,100.00
2022-08-05T04:31:38.562Z,100.00
2022-08-05T04:34:31.228Z,100.00
2022-08-05T04:37:00.264Z,100.00
2022-08-05T04:39:35.384Z,100.00
2022-08-05T04:42:06.747Z,100.00
2022-08-05T04:44:35.947Z,100.00
2022-08-05T04:47:09.817Z,100.00
2022-08-05T04:50:02.154Z,100.00
2022-08-05T04:52:42.358Z,100.00
2022-08-05T04:55:34.033Z,100.00
2022-08-05T04:58:15.659Z,100.00
2022-08-05T05:00:51.667Z,100.00
2022-08-05T05:03:25.028Z,100.00
2022-08-05T05:06:39.126Z,100.00
2022-08-05T05:08:50.165Z,100.00
2022-08-05T05:11:52.915Z,100.00
2022-08-05T05:14:36.214Z,100.00
2022-08-05T05:17:13.308Z,100.00
2022-08-05T05:19:47.435Z,100.00
2022-08-05T05:22:22.624Z,100.00
2022-08-05T05:24:57.134Z,100.00
2022-08-05T05:27:44.331Z,100.00
2022-08-05T05:30:30.555Z,100.00
2022-08-05T05:33:14.178Z,100.00
2022-08-05T05:38:39.364Z,100.00
2022-08-05T05:44:05.281Z,100.00
2022-08-05T05:46:57.868Z,100.00
2022-08-05T05:49:33.318Z,100.00
2022-08-05T05:52:05.859Z,100.00
2022-08-05T05:54:50.893Z,100.00
2022-08-05T05:57:23.256Z,100.00
2022-08-05T05:59:58.275Z,100.00
2022-08-05T06:02:37.561Z,100.00
2022-08-05T06:05:17.737Z,100.00
2022-08-05T06:08:01.121Z,100.00
2022-08-05T06:10:49.219Z,100.00
2022-08-05T06:13:21.338Z,100.00
2022-08-05T06:16:30.547Z,100.00
2022-08-05T06:18:49.178Z,100.00
2022-08-05T06:21:22.185Z,100.00
2022-08-05T06:23:50.540Z,100.00
2022-08-05T06:26:26.253Z,100.00
2022-08-05T06:29:03.672Z,100.00
2022-08-05T06:31:35.444Z,100.00
2022-08-05T06:34:07.650Z,100.00
2022-08-05T06:36:56.882Z,100.00
2022-08-05T06:39:27.330Z,100.00
2022-08-05T06:41:59.244Z,100.00
2022-08-05T06:44:28.593Z,100.00
2022-08-05T06:46:57.606Z,100.00
2022-08-05T06:50:01.813Z,100.00
2022-08-05T06:52:36.952Z,100.00
2022-08-05T06:55:03.425Z,100.00
2022-08-05T06:58:03.259Z,100.00
2022-08-05T07:00:31.384Z,100.00
2022-08-05T07:02:59.871Z,100.00
2022-08-05T07:05:37.284Z,100.00
2022-08-05T07:08:10.650Z,100.00
2022-08-05T07:10:52.941Z,100.00
2022-08-05T07:13:58.698Z,100.00
2022-08-05T07:17:58.749Z,100.00
2022-08-05T07:22:28.460Z,100.00
2022-08-05T07:25:21.908Z,100.00
2022-08-05T07:27:57.251Z,100.00
2022-08-05T07:30:40.373Z,100.00
2022-08-05T07:33:16.210Z,100.00
2022-08-05T07:36:04.000Z,100.00
2022-08-05T07:38:43.676Z,100.00
2022-08-05T07:42:09.232Z,100.00
2022-08-05T07:44:18.564Z,100.00
2022-08-05T07:46:50.641Z,100.00
2022-08-05T07:49:20.572Z,100.00
2022-08-05T07:51:54.230Z,100.00
2022-08-05T07:54:33.607Z,100.00
2022-08-05T07:57:18.131Z,100.00
2022-08-05T07:59:55.613Z,100.00
2022-08-05T08:02:30.797Z,100.00
2022-08-05T08:05:01.059Z,100.00
2022-08-05T08:07:39.459Z,100.00
2022-08-05T08:10:20.523Z,100.00
2022-08-05T08:12:49.956Z,100.00
2022-08-05T08:16:35.675Z,100.00
2022-08-05T08:18:09.973Z,100.00
2022-08-05T08:21:01.866Z,100.00
2022-08-05T08:24:02.441Z,100.00
2022-08-05T08:26:27.038Z,100.00
2022-08-05T08:29:09.775Z,100.00
2022-08-05T08:31:49.947Z,100.00
2022-08-05T08:34:29.859Z,100.00
2022-08-05T08:37:04.886Z,100.00
2022-08-05T08:39:37.451Z,100.00
2022-08-05T08:42:22.485Z,100.00
2022-08-05T08:45:22.307Z,100.00
2022-08-05T08:48:12.922Z,100.00
2022-08-05T08:51:03.615Z,100.00
2022-08-05T08:53:44.958Z,99.36
2022-08-05T08:56:14.238Z,96.30
2022-08-05T08:58:47.751Z,94.02
2022-08-05T09:01:18.968Z,92.06
2022-08-05T09:03:53.067Z,87.78
2022-08-05T09:06:29.742Z,86.48
2022-08-05T09:09:00.593Z,83.87
2022-08-05T09:11:51.671Z,81.94
2022-08-05T09:14:57.715Z,80.05
2022-08-05T09:17:40.199Z,83.98
2022-08-05T09:20:09.272Z,74.92
2022-08-05T09:23:18.578Z,73.75
2022-08-05T09:26:01.420Z,72.41
2022-08-05T09:28:33.754Z,71.84
2022-08-05T09:31:18.228Z,67.69
2022-08-05T09:33:58.582Z,63.21
2022-08-05T09:36:55.323Z,57.59
2022-08-05T09:39:45.554Z,55.36
2022-08-05T09:42:28.251Z,49.29
2022-08-05T09:46:04.808Z,50.17
2022-08-05T09:47:56.691Z,48.80
2022-08-05T09:50:38.857Z,47.54
2022-08-05T09:53:23.002Z,47.67
2022-08-05T09:56:04.709Z,48.35
2022-08-05T09:58:41.688Z,48.16
2022-08-05T10:01:22.528Z,48.10
2022-08-05T10:04:10.366Z,46.51
2022-08-05T10:06:41.435Z,46.67
2022-08-05T10:09:27.736Z,45.69
2022-08-05T10:12:18.654Z,44.72
2022-08-05T10:15:26.704Z,45.17
2022-08-05T10:18:23.762Z,45.55
2022-08-05T10:20:55.334Z,45.83
2022-08-05T10:23:55.609Z,47.05
2022-08-05T10:26:15.339Z,47.31
2022-08-05T10:28:47.102Z,46.97
2022-08-05T10:32:54.224Z,47.96
2022-08-05T10:34:08.709Z,49.59
2022-08-05T10:36:38.528Z,48.55
2022-08-05T10:39:15.317Z,48.76
2022-08-05T10:42:03.538Z,47.92
2022-08-05T10:44:37.432Z,47.49
2022-08-05T10:47:27.113Z,49.07
2022-08-05T10:50:31.936Z,50.01
2022-08-05T10:53:01.054Z,50.21
2022-08-05T10:55:38.579Z,51.85
2022-08-05T10:58:22.378Z,53.84
2022-08-05T11:01:11.389Z,53.39
2022-08-05T11:04:05.654Z,54.19
2022-08-05T11:06:57.682Z,53.01
2022-08-05T11:09:45.316Z,55.19
2022-08-05T11:12:50.802Z,55.08
2022-08-05T11:15:58.992Z,57.98
2022-08-05T11:18:37.602Z,62.43
2022-08-05T11:21:48.792Z,67.12
2022-08-05T11:24:30.112Z,69.63
2022-08-05T11:27:50.075Z,70.37
2022-08-05T11:30:24.209Z,68.54
2022-08-05T11:33:43.965Z,69.45
2022-08-05T11:36:34.342Z,69.31
2022-08-05T11:39:12.050Z,72.05
2022-08-05T11:42:01.462Z,73.97
2022-08-05T11:44:53.822Z,76.05
2022-08-05T11:47:49.275Z,75.57
2022-08-05T11:50:25.383Z,77.65
2022-08-05T11:52:58.193Z,80.67
2022-08-05T11:55:36.041Z,73.78
2022-08-05T11:58:10.088Z,77.91
2022-08-05T12:00:44.069Z,76.30
2022-08-05T12:03:28.764Z,75.75
2022-08-05T12:06:05.984Z,78.14
2022-08-05T12:08:49.768Z,80.66
2022-08-05T12:11:24.253Z,84.22
2022-08-05T12:14:04.054Z,85.16
2022-08-05T12:16:38.747Z,100.00
2022-08-05T12:19:11.125Z,94.37
2022-08-05T12:21:59.642Z,95.58
2022-08-05T12:24:31.311Z,92.93
2022-08-05T12:27:09.707Z,85.67
2022-08-05T12:30:06.532Z,78.26
2022-08-05T12:32:50.402Z,78.99
2022-08-05T12:35:37.126Z,78.75
2022-08-05T12:38:22.290Z,84.21
2022-08-05T12:41:03.776Z,76.72
2022-08-05T12:43:34.755Z,75.15
2022-08-05T12:46:12.477Z,70.87
2022-08-05T12:48:42.120Z,68.34
2022-08-05T12:52:09.989Z,67.11
2022-08-05T12:54:14.708Z,62.80
2022-08-05T12:56:57.117Z,61.56
2022-08-05T13:01:58.097Z,61.82
2022-08-05T13:02:27.220Z,59.35
2022-08-05T13:05:12.610Z,58.08
2022-08-05T13:07:57.731Z,57.25
2022-08-05T13:10:35.710Z,55.68
2022-08-05T13:14:06.835Z,54.52
2022-08-05T13:16:17.293Z,57.19
2022-08-05T13:19:03.142Z,55.53
2022-08-05T13:21:37.995Z,54.47
2022-08-05T13:24:36.206Z,54.37
2022-08-05T13:27:23.026Z,51.72
2022-08-05T13:30:34.475Z,52.64
2022-08-05T13:37:34.579Z,46.58
2022-08-05T13:40:15.038Z,46.66
2022-08-05T13:42:49.947Z,48.30
2022-08-05T13:45:33.964Z,47.74
2022-08-05T13:48:08.687Z,47.11
2022-08-05T13:50:39.452Z,47.23
2022-08-05T13:53:15.990Z,45.89
2022-08-05T13:55:49.280Z,44.67
2022-08-05T13:58:35.078Z,46.02
2022-08-05T14:01:56.304Z,56.68
2022-08-05T14:04:49.858Z,58.51
2022-08-05T14:07:26.304Z,58.41
2022-08-05T14:10:18.628Z,57.66
2022-08-05T14:12:49.114Z,57.57
2022-08-05T14:16:08.818Z,58.93
2022-08-05T14:18:14.979Z,60.69
2022-08-05T14:20:47.140Z,61.03
2022-08-05T14:23:23.387Z,60.97
2022-08-05T14:25:57.915Z,56.64
2022-08-05T14:28:29.107Z,52.84
2022-08-05T14:31:17.268Z,51.92
2022-08-05T14:34:11.987Z,53.51
2022-08-05T14:37:18.703Z,56.96
2022-08-05T14:40:16.759Z,58.02
2022-08-05T14:43:03.358Z,55.08
2022-08-05T14:45:49.007Z,53.51
2022-08-05T14:48:33.337Z,52.68
2022-08-05T14:51:30.661Z,51.41
2022-08-05T14:54:27.548Z,48.81
2022-08-05T15:00:04.795Z,46.88
2022-08-05T15:02:37.402Z,48.39
2022-08-05T15:05:13.539Z,47.73
2022-08-05T15:08:08.777Z,47.37
2022-08-05T15:10:46.186Z,47.52
2022-08-05T15:13:18.986Z,49.24
2022-08-05T15:16:14.999Z,47.87
2022-08-05T15:19:14.406Z,47.07
2022-08-05T15:22:09.146Z,45.02
2022-08-05T15:25:11.945Z,44.70
2022-08-05T15:27:52.307Z,43.64
2022-08-05T15:30:21.466Z,44.63
2022-08-05T15:33:07.837Z,44.47
2022-08-05T15:35:36.534Z,42.19
2022-08-05T15:38:35.920Z,42.61
2022-08-05T15:41:23.330Z,42.37
2022-08-05T15:43:58.591Z,42.12
2022-08-05T15:46:47.994Z,41.86
2022-08-05T15:49:52.077Z,42.96
2022-08-05T15:52:52.274Z,41.23
2022-08-05T15:55:17.928Z,41.29
2022-08-05T15:57:52.788Z,41.23
2022-08-05T16:00:50.701Z,41.03
2022-08-05T16:03:41.140Z,40.33
2022-08-05T16:06:13.602Z,40.53
2022-08-05T16:09:03.105Z,39.80
2022-08-05T16:11:40.046Z,38.33
2022-08-05T16:14:17.087Z,37.42
2022-08-05T16:20:04.655Z,36.95
2022-08-05T16:26:16.938Z,39.45
2022-08-05T16:29:39.047Z,39.07
2022-08-05T16:32:44.620Z,37.79
2022-08-05T16:35:16.051Z,37.48
2022-08-05T16:38:16.347Z,38.07
2022-08-05T16:40:59.704Z,39.07
2022-08-05T16:43:31.358Z,39.41
2022-08-05T16:46:13.072Z,40.50
2022-08-05T16:48:52.738Z,41.58
2022-08-05T16:51:21.634Z,41.82
2022-08-05T16:54:04.897Z,43.37
2022-08-05T16:56:41.609Z,46.67
2022-08-05T16:59:10.511Z,46.94
2022-08-05T17:01:54.805Z,47.84
2022-08-05T17:04:26.483Z,51.57
2022-08-05T17:07:00.162Z,54.78
2022-08-05T17:09:30.273Z,57.78
2022-08-05T17:12:08.015Z,56.29
2022-08-05T17:14:40.004Z,66.32
2022-08-05T17:17:15.082Z,64.04
2022-08-05T17:19:46.055Z,65.97
2022-08-05T17:22:25.142Z,68.63
2022-08-05T17:24:57.542Z,72.87
2022-08-05T17:27:33.782Z,68.57
2022-08-05T17:30:04.104Z,71.75
2022-08-05T17:32:34.762Z,74.97
2022-08-05T17:35:03.959Z,75.78
2022-08-05T17:37:40.487Z,74.61
2022-08-05T17:40:17.340Z,73.90
2022-08-05T17:42:51.296Z,73.80
2022-08-05T17:45:25.040Z,76.43
2022-08-05T17:48:00.195Z,78.52
2022-08-05T17:50:30.803Z,80.05
2022-08-05T17:53:01.951Z,83.20
2022-08-05T17:55:38.163Z,80.03
2022-08-05T17:58:14.623Z,87.75
2022-08-05T18:00:50.765Z,89.00
2022-08-05T18:03:59.289Z,87.82
2022-08-05T18:06:14.994Z,86.59
2022-08-05T18:08:52.358Z,88.56
2022-08-05T18:11:32.515Z,91.69
2022-08-05T18:14:13.597Z,94.43
2022-08-05T18:18:00.751Z,96.95
2022-08-05T18:20:14.021Z,97.34
2022-08-05T18:22:54.064Z,100.00
2022-08-05T18:25:22.825Z,100.00
2022-08-05T18:27:53.522Z,100.00
2022-08-05T18:30:26.214Z,100.00
2022-08-05T18:33:00.532Z,100.00
2022-08-05T18:36:00.817Z,100.00
2022-08-05T18:38:26.345Z,100.00
2022-08-05T18:41:55.811Z,100.00
2022-08-05T18:43:49.083Z,100.00
2022-08-05T18:46:20.239Z,100.00
2022-08-05T18:49:18.591Z,100.00
2022-08-05T18:52:32.912Z,100.00
2022-08-05T18:55:10.393Z,100.00
2022-08-05T18:57:43.051Z,100.00
2022-08-05T19:00:20.739Z,100.00
2022-08-05T19:02:49.388Z,100.00
2022-08-05T19:06:12.306Z,100.00
2022-08-05T19:08:15.422Z,100.00
2022-08-05T19:10:47.168Z,100.00
2022-08-05T19:13:16.036Z,100.00
2022-08-05T19:15:59.984Z,100.00
2022-08-05T19:18:32.379Z,100.00
2022-08-05T19:21:00.581Z,100.00
2022-08-05T19:24:06.757Z,100.00
2022-08-05T19:26:22.219Z,100.00
2022-08-05T19:28:51.154Z,100.00
2022-08-05T19:31:22.957Z,100.00
2022-08-05T19:33:56.256Z,100.00
2022-08-05T19:36:29.388Z,100.00
2022-08-05T19:39:00.807Z,100.00
2022-08-05T19:41:58.197Z,100.00
2022-08-05T19:44:18.453Z,100.00
2022-08-05T19:46:47.001Z,100.00
2022-08-05T19:49:17.199Z,100.00
2022-08-05T19:52:05.522Z,100.00
2022-08-05T19:54:36.860Z,100.00
2022-08-05T19:57:09.216Z,100.00
2022-08-05T19:59:54.540Z,100.00
2022-08-05T20:02:31.354Z,100.00
2022-08-05T20:05:02.490Z,100.00
2022-08-05T20:07:47.276Z,100.00
2022-08-05T20:10:22.394Z,100.00
2022-08-05T20:12:53.651Z,100.00
2022-08-05T20:15:48.124Z,100.00
2022-08-05T20:18:32.623Z,100.00
2022-08-05T20:21:00.258Z,100.00
2022-08-05T20:23:39.551Z,100.00
2022-08-05T20:26:19.765Z,100.00
2022-08-05T20:28:50.885Z,100.00
2022-08-05T20:31:21.777Z,100.00
2022-08-05T20:33:51.569Z,100.00
2022-08-05T20:36:20.796Z,100.00
2022-08-05T20:38:53.254Z,100.00
2022-08-05T20:41:27.024Z,100.00
2022-08-05T20:43:59.080Z,100.00
2022-08-05T20:46:31.278Z,100.00
2022-08-05T20:49:00.109Z,100.00
2022-08-05T20:51:30.733Z,100.00
2022-08-05T20:54:01.225Z,100.00
2022-08-05T20:56:40.142Z,100.00
2022-08-05T20:59:14.117Z,100.00
2022-08-05T21:01:47.332Z,100.00
2022-08-05T21:04:16.843Z,100.00
2022-08-05T21:06:45.984Z,100.00
2022-08-05T21:09:15.956Z,100.00
2022-08-05T21:12:10.491Z,100.00
2022-08-05T21:14:34.890Z,100.00
2022-08-05T21:17:05.473Z,100.00
2022-08-05T21:19:47.139Z,100.00
2022-08-05T21:22:18.316Z,100.00
2022-08-05T21:24:51.892Z,100.00
2022-08-05T21:27:25.057Z,100.00
2022-08-05T21:29:56.621Z,100.00
2022-08-05T21:32:27.371Z,100.00
2022-08-05T21:35:08.856Z,100.00
2022-08-05T21:37:47.388Z,100.00
2022-08-05T21:40:23.194Z,100.00
2022-08-05T21:42:53.827Z,100.00
2022-08-05T21:45:25.241Z,100.00
2022-08-05T21:48:11.192Z,100.00
2022-08-05T21:50:54.170Z,100.00
2022-08-05T21:53:27.082Z,100.00
2022-08-05T21:56:04.866Z,100.00
2022-08-05T21:58:57.057Z,100.00
2022-08-05T22:01:26.652Z,100.00
2022-08-05T22:03:55.247Z,100.00
2022-08-05T22:06:35.451Z,100.00
2022-08-05T22:09:14.017Z,100.00
2022-08-05T22:11:46.897Z,100.00
2022-08-05T22:14:33.303Z,100.00
2022-08-05T22:17:03.894Z,100.00
2022-08-05T22:20:00.424Z,100.00
2022-08-05T22:22:27.163Z,100.00
2022-08-05T22:25:21.850Z,100.00
2022-08-05T22:28:11.417Z,100.00
2022-08-05T22:30:55.984Z,100.00
2022-08-05T22:33:55.678Z,100.00
2022-08-05T22:36:15.283Z,100.00
2022-08-05T22:38:47.970Z,100.00
2022-08-05T22:42:05.500Z,100.00
2022-08-05T22:44:07.760Z,100.00
2022-08-05T22:46:39.834Z,100.00
2022-08-05T22:49:12.215Z,100.00
2022-08-05T22:52:04.311Z,100.00
2022-08-05T22:54:35.125Z,100.00
2022-08-05T22:57:03.649Z,100.00
2022-08-05T22:59:45.304Z,100.00
2022-08-05T23:02:18.585Z,100.00
2022-08-05T23:05:01.946Z,100.00
2022-08-05T23:07:45.235Z,100.00
2022-08-05T23:10:19.866Z,100.00
2022-08-05T23:12:51.563Z,100.00
2022-08-05T23:15:27.005Z,100.00
2022-08-05T23:18:02.045Z,100.00
2022-08-05T23:20:32.500Z,100.00
2022-08-05T23:23:03.718Z,100.00
2022-08-05T23:25:52.346Z,100.00
2022-08-05T23:28:26.892Z,100.00
2022-08-05T23:31:15.788Z,100.00
2022-08-05T23:34:06.189Z,100.00
2022-08-05T23:36:39.901Z,100.00
2022-08-05T23:39:17.251Z,100.00
2022-08-05T23:41:52.348Z,100.00
2022-08-05T23:44:22.538Z,100.00
2022-08-05T23:46:53.404Z,100.00
2022-08-05T23:49:35.723Z,100.00
2022-08-05T23:52:25.536Z,100.00
2022-08-05T23:54:55.125Z,100.00
2022-08-05T23:57:24.460Z,100.00
